createdAt,value
2018-10-09T00:02:51.310Z,36.33
2018-10-09T00:08:20.712Z,35.63
2018-10-09T00:13:50.000Z,37.40
2018-10-09T00:19:19.344Z,39.00
2018-10-09T00:24:49.684Z,37.80
2018-10-09T00:30:18.940Z,42.20
2018-10-09T00:35:48.546Z,45.20
2018-10-09T00:41:17.992Z,47.90
2018-10-09T00:46:47.361Z,55.87
2018-10-09T00:52:16.776Z,61.47
2018-10-09T00:57:46.027Z,61.98
2018-10-09T01:03:15.453Z,68.77
2018-10-09T01:08:44.885Z,67.70
2018-10-09T01:14:14.113Z,70.27
2018-10-09T01:19:43.428Z,70.72
2018-10-09T01:25:12.769Z,60.30
2018-10-09T01:30:42.061Z,59.27
2018-10-09T01:36:13.845Z,59.00
2018-10-09T01:41:43.110Z,68.57
2018-10-09T01:47:12.454Z,59.53
2018-10-09T01:52:41.719Z,57.50
2018-10-09T01:58:11.037Z,57.45
2018-10-09T02:03:40.444Z,53.23
2018-10-09T02:09:10.013Z,53.95
2018-10-09T02:14:39.559Z,52.30
2018-10-09T02:20:08.917Z,51.68
2018-10-09T02:25:45.829Z,51.70
2018-10-09T02:31:15.422Z,50.30
2018-10-09T02:36:44.776Z,48.70
2018-10-09T02:42:14.064Z,47.97
2018-10-09T02:47:43.292Z,46.93
2018-10-09T02:53:13.402Z,46.03
2018-10-09T02:58:43.494Z,48.67
2018-10-09T03:04:13.603Z,46.13
2018-10-09T03:09:42.805Z,49.10
2018-10-09T03:15:13.153Z,47.87
2018-10-09T03:20:42.588Z,48.20
2018-10-09T03:26:11.752Z,49.20
2018-10-09T03:31:41.081Z,46.30
2018-10-09T03:37:10.348Z,47.50
2018-10-09T03:42:39.652Z,45.27
2018-10-09T03:48:08.922Z,46.63
2018-10-09T03:53:38.165Z,47.10
2018-10-09T03:59:07.504Z,46.57
2018-10-09T04:04:41.862Z,48.10
2018-10-09T04:10:11.127Z,47.77
2018-10-09T04:15:41.513Z,46.17
2018-10-09T04:21:12.884Z,48.60
2018-10-09T04:26:42.210Z,48.17
2018-10-09T04:32:16.297Z,48.20
2018-10-09T04:37:46.608Z,45.77
2018-10-09T04:43:19.350Z,47.23
2018-10-09T04:48:49.717Z,45.90
2018-10-09T04:54:18.982Z,45.70
2018-10-09T04:59:49.375Z,45.30
2018-10-09T05:05:18.819Z,44.60
2018-10-09T05:10:52.392Z,47.13
2018-10-09T05:16:21.666Z,46.07
2018-10-09T05:21:52.078Z,43.47
2018-10-09T05:27:21.450Z,46.30
2018-10-09T05:32:50.838Z,44.37
2018-10-09T05:38:20.113Z,43.40
2018-10-09T05:43:49.509Z,44.58
2018-10-09T05:49:18.905Z,45.33
2018-10-09T05:54:48.193Z,43.07
2018-10-09T06:00:17.649Z,43.70
2018-10-09T06:05:46.967Z,44.80
2018-10-09T06:11:16.278Z,42.20
2018-10-09T06:16:45.680Z,42.93
2018-10-09T06:22:15.114Z,42.83
2018-10-09T06:27:44.466Z,44.20
2018-10-09T06:33:13.802Z,45.10
2018-10-09T06:38:43.196Z,45.60
2018-10-09T06:44:12.569Z,43.97
2018-10-09T06:49:41.932Z,42.97
2018-10-09T06:55:11.306Z,44.90
2018-10-09T07:00:40.628Z,44.10
2018-10-09T07:06:09.988Z,42.50
2018-10-09T07:11:39.323Z,42.80
2018-10-09T07:17:08.626Z,42.93
2018-10-09T07:22:37.865Z,43.60
2018-10-09T07:28:07.310Z,44.40
2018-10-09T07:33:36.693Z,42.90
2018-10-09T07:39:10.132Z,43.30
2018-10-09T07:44:39.464Z,42.23
2018-10-09T07:50:08.932Z,38.73
2018-10-09T07:55:38.331Z,39.90
2018-10-09T08:01:07.850Z,40.73
2018-10-09T08:06:39.231Z,42.73
2018-10-09T08:12:08.611Z,42.60
2018-10-09T08:17:37.945Z,43.33
2018-10-09T08:23:07.321Z,42.80
2018-10-09T08:28:36.695Z,42.60
2018-10-09T08:34:06.268Z,43.77
2018-10-09T08:39:35.828Z,44.63
2018-10-09T08:45:05.555Z,41.70
2018-10-09T08:50:34.945Z,39.40
2018-10-09T08:56:04.282Z,38.73
2018-10-09T09:01:33.717Z,41.50
2018-10-09T09:07:03.045Z,37.77
2018-10-09T09:12:32.447Z,38.87
2018-10-09T09:18:01.944Z,35.83
2018-10-09T09:23:31.374Z,34.93
2018-10-09T09:29:00.828Z,34.30
2018-10-09T09:34:30.213Z,31.97
2018-10-09T09:39:59.746Z,31.23
2018-10-09T09:45:29.219Z,25.93
2018-10-09T09:50:58.641Z,23.37
2018-10-09T09:56:28.073Z,25.70
2018-10-09T10:01:57.452Z,21.00
2018-10-09T10:07:26.928Z,23.30
2018-10-09T10:12:56.282Z,21.03
2018-10-09T10:18:25.700Z,20.83
2018-10-09T10:23:55.147Z,20.17
2018-10-09T10:29:24.617Z,20.53
2018-10-09T10:34:54.002Z,19.60
2018-10-09T10:40:23.381Z,18.47
2018-10-09T10:45:52.929Z,18.90
2018-10-09T10:51:22.309Z,18.80
2018-10-09T10:56:51.725Z,19.37
2018-10-09T11:02:23.209Z,18.53
2018-10-09T11:07:53.160Z,18.27
2018-10-09T11:13:22.582Z,18.77
2018-10-09T11:18:51.993Z,19.30
2018-10-09T11:24:21.356Z,19.33
2018-10-09T11:29:50.761Z,19.93
2018-10-09T11:35:20.177Z,21.13
2018-10-09T11:40:51.256Z,20.03
2018-10-09T11:46:20.676Z,20.03
2018-10-09T11:51:50.259Z,21.17
2018-10-09T11:57:19.565Z,18.60
2018-10-09T12:02:48.931Z,19.37
2018-10-09T12:08:18.285Z,18.07
2018-10-09T12:13:47.725Z,19.43
2018-10-09T12:19:17.231Z,17.50
2018-10-09T12:24:47.797Z,17.90
2018-10-09T12:30:22.957Z,18.67
2018-10-09T12:35:52.447Z,17.67
2018-10-09T12:41:22.106Z,19.43
2018-10-09T12:46:51.871Z,21.10
2018-10-09T12:52:21.465Z,16.87
2018-10-09T12:57:50.941Z,18.80
2018-10-09T13:03:20.313Z,19.62
2018-10-09T13:08:49.801Z,19.50
2018-10-09T13:14:20.293Z,20.80
2018-10-09T13:19:50.109Z,20.20
2018-10-09T13:25:19.675Z,23.07
2018-10-09T13:30:49.303Z,21.20
2018-10-09T13:36:18.772Z,22.77
2018-10-09T13:41:48.365Z,21.93
2018-10-09T13:47:17.835Z,22.77
2018-10-09T13:52:51.045Z,21.53
2018-10-09T13:58:28.347Z,20.77
2018-10-09T14:03:57.774Z,20.07
2018-10-09T14:09:27.410Z,22.60
2018-10-09T14:14:56.826Z,21.60
2018-10-09T14:20:38.487Z,21.70
2018-10-09T14:26:08.172Z,20.80
2018-10-09T14:31:37.652Z,23.10
2018-10-09T14:37:07.230Z,20.77
2018-10-09T14:42:36.704Z,22.00
2018-10-09T14:48:06.113Z,20.27
2018-10-09T14:53:37.800Z,22.73
2018-10-09T14:59:07.685Z,21.23
2018-10-09T15:04:39.186Z,21.93
2018-10-09T15:10:10.616Z,24.50
2018-10-09T15:15:40.019Z,24.63
2018-10-09T15:21:09.578Z,25.60
2018-10-09T15:26:38.929Z,25.53
2018-10-09T15:32:14.160Z,24.20
2018-10-09T15:37:43.748Z,24.27
2018-10-09T15:43:13.299Z,29.00
2018-10-09T15:48:47.747Z,26.05
2018-10-09T15:54:17.220Z,28.90
2018-10-09T15:59:46.717Z,30.23
2018-10-09T16:05:16.642Z,31.13
2018-10-09T16:10:46.033Z,28.03
2018-10-09T16:16:15.445Z,32.00
2018-10-09T16:21:44.975Z,30.40
2018-10-09T16:27:14.360Z,31.10
2018-10-09T16:32:44.153Z,31.83
2018-10-09T16:38:13.572Z,31.77
2018-10-09T16:43:45.938Z,29.82
2018-10-09T16:49:15.391Z,33.40
2018-10-09T16:54:45.209Z,32.47
2018-10-09T17:00:14.655Z,31.17
2018-10-09T17:05:44.095Z,33.50
2018-10-09T17:11:13.677Z,33.47
2018-10-09T17:16:44.225Z,34.50
2018-10-09T17:22:15.097Z,33.93
2018-10-09T17:27:44.703Z,33.70
2018-10-09T17:33:14.451Z,33.97
2018-10-09T17:38:44.053Z,41.13
2018-10-09T17:44:13.856Z,35.00
2018-10-09T17:49:43.624Z,34.47
2018-10-09T17:55:15.616Z,34.57
2018-10-09T18:00:54.659Z,35.50
2018-10-09T18:06:24.239Z,34.73
2018-10-09T18:11:55.853Z,35.80
2018-10-09T18:17:25.214Z,36.00
2018-10-09T18:22:55.738Z,36.13
2018-10-09T18:28:25.388Z,37.73
2018-10-09T18:33:55.649Z,36.67
2018-10-09T18:39:34.302Z,35.00
2018-10-09T18:45:03.970Z,35.10
2018-10-09T18:50:34.936Z,37.20
2018-10-09T18:56:17.581Z,36.67
2018-10-09T19:01:50.597Z,37.17
2018-10-09T19:07:20.181Z,37.80
2018-10-09T19:12:50.667Z,35.80
2018-10-09T19:18:20.129Z,36.43
2018-10-09T19:23:49.833Z,36.30
2018-10-09T19:29:25.710Z,35.90
2018-10-09T19:34:55.494Z,34.97
2018-10-09T19:40:24.926Z,36.77
2018-10-09T19:45:54.338Z,35.80
2018-10-09T19:51:23.941Z,32.93
2018-10-09T19:56:55.637Z,34.17
2018-10-09T20:02:25.199Z,34.57
2018-10-09T20:07:54.858Z,33.03
2018-10-09T20:13:25.274Z,33.30
2018-10-09T20:18:55.723Z,39.20
2018-10-09T20:24:25.164Z,33.87
2018-10-09T20:29:56.487Z,36.03
2018-10-09T20:35:25.757Z,33.67
2018-10-09T20:40:55.342Z,34.63
2018-10-09T20:46:24.862Z,34.33
2018-10-09T20:52:00.053Z,33.90
2018-10-09T20:57:32.835Z,35.87
2018-10-09T21:03:04.260Z,35.40
2018-10-09T21:08:37.143Z,36.30
2018-10-09T21:14:07.628Z,36.63
2018-10-09T21:19:40.665Z,35.07
2018-10-09T21:25:10.170Z,35.10
2018-10-09T21:30:41.345Z,33.80
2018-10-09T21:36:14.209Z,35.10
2018-10-09T21:41:45.918Z,33.33
2018-10-09T21:47:16.564Z,34.37
2018-10-09T21:52:47.054Z,34.77
2018-10-09T21:58:19.434Z,34.17
2018-10-09T22:03:50.592Z,30.47
2018-10-09T22:09:20.661Z,31.70
2018-10-09T22:14:50.644Z,31.33
2018-10-09T22:20:20.849Z,31.80
2018-10-09T22:25:51.254Z,32.20
2018-10-09T22:31:21.132Z,32.60
2018-10-09T22:36:50.610Z,32.10
2018-10-09T22:42:19.978Z,30.50
2018-10-09T22:47:49.298Z,31.23
2018-10-09T22:53:21.347Z,30.70
2018-10-09T22:58:51.793Z,29.27
2018-10-09T23:04:21.302Z,30.17
2018-10-09T23:09:50.638Z,31.05
2018-10-09T23:15:19.896Z,34.67
2018-10-09T23:20:49.221Z,36.03
2018-10-09T23:26:18.469Z,35.03
2018-10-09T23:31:48.718Z,35.17
2018-10-09T23:37:18.610Z,33.90
2018-10-09T23:42:51.277Z,32.67
2018-10-09T23:48:23.420Z,33.57
2018-10-09T23:53:57.499Z,30.57
2018-10-09T23:59:27.793Z,31.77
